Home > Products > Valid Products > MTR

000
SAUS46 KPQR 060853
MTRREO
METAR KREO 060852Z AUTO 00000KT 20/09 A3008 RMK AO1 SLP147 T02000094
58000





000
SAUS46 KPQR 060754
MTRREO
METAR KREO 060752Z AUTO 19011KT 22/09 A3008 RMK AO1 SLP147 T02170094
402720200





000
SAUS46 KPQR 060653
MTRREO
METAR KREO 060652Z AUTO 15008KT 21/10 A3009 RMK AO1 SLP149 T02060100





000
SAUS46 KPQR 060653
MTRREO
METAR KREO 060652Z AUTO 15008KT 21/10 A3009 RMK AO1 SLP149 T02060100





000
SAUS46 KPQR 060553
MTRREO
METAR KREO 060552Z AUTO 17008KT 21/10 A3009 RMK AO1 SLP150 T02060100
10244 20200 51014





000
SAUS46 KPQR 060453
MTRREO
METAR KREO 060452Z AUTO 14005KT 23/09 A3008 RMK AO1 SLP148 T02280089





000
SAUS46 KPQR 060353
MTRREO
METAR KREO 060352Z AUTO 15003KT 22/09 A3005 RMK AO1 SLP140 T02220089





000
SAUS46 KPQR 060253
MTRREO
METAR KREO 060252Z AUTO 20005KT 24/09 A3004 RMK AO1 SLP133 T02390089
55004





000
SAUS46 KPQR 060153
MTRREO
METAR KREO 060152Z AUTO 18009KT 24/11 A3004 RMK AO1 SLP130 T02390106





000
SAUS46 KPQR 060153
MTRREO
METAR KREO 060152Z AUTO 18009KT 24/11 A3004 RMK AO1 SLP130 T02390106





000
SAUS46 KPQR 060053
MTRREO
METAR KREO 060052Z AUTO 23011KT 23/11 A3005 RMK AO1 SLP133 T02330106





000
SAUS46 KPQR 052353
MTRREO
METAR KREO 052352Z AUTO 25011KT 24/11 A3006 RMK AO1 SLP137 T02390106
10272 20233 53001





000
SAUS46 KPQR 052353
MTRREO
METAR KREO 052352Z AUTO 25011KT 24/11 A3006 RMK AO1 SLP137 T02390106
10272 20233 53001





000
SAUS46 KPQR 052258
MTRREO
METAR KREO 052252Z AUTO 23016KT 24/11 A3005 RMK AO1 SLP134 T02390106





000
SAUS46 KPQR 052153
MTRREO
METAR KREO 052152Z AUTO 21014KT 26/12 A3005 RMK AO1 SLP129 T02610117





000
SAUS46 KPQR 052053
MTRREO
METAR KREO 052052Z AUTO 21015G21KT 26/11 A3005 RMK AO1 SLP131
T02610111 50006





000
SAUS46 KPQR 051953
MTRREO
METAR KREO 051952Z AUTO 21013KT 24/12 A3006 RMK AO1 SLP134 T02440117





000
SAUS46 KPQR 051853
MTRREO
METAR KREO 051852Z AUTO 22015KT 25/13 A3005 RMK AO1 SLP129 T02500128





000
SAUS46 KPQR 051753
MTRREO
METAR KREO 051752Z AUTO 19012KT 23/14 A3003 RMK AO1 SLP123 T02330144
10233 20200 52007





000
SAUS46 KPQR 051653
MTRREO
METAR KREO 051652Z AUTO 20017KT 23/14 A3002 RMK AO1 PK WND
21026/1635 SLP120 T02280144





000
SAUS46 KPQR 051653
MTRREO
METAR KREO 051652Z AUTO 20017KT 23/14 A3002 RMK AO1 PK WND
21026/1635 SLP120 T02280144





000
SAUS46 KPQR 051553
MTRREO
METAR KREO 051552Z AUTO 18008KT 21/15 A3002 RMK AO1 SLP124 T02060150





000
SAUS46 KPQR 051553
MTRREO
METAR KREO 051552Z AUTO 18008KT 21/15 A3002 RMK AO1 SLP124 T02060150





000
SAUS46 KPQR 051453
MTRREO
METAR KREO 051452Z AUTO 20012KT 21/14 A3001 RMK AO1 SLP116 T02110144
53011





000
SAUS46 KPQR 051453
MTRREO
METAR KREO 051452Z AUTO 20012KT 21/14 A3001 RMK AO1 SLP116 T02110144
53011





000
SAUS46 KPQR 051353
MTRREO
METAR KREO 051352Z AUTO 19011KT 23/12 A3000 RMK AO1 SLP104 T02280122





000
SAUS46 KPQR 051258
MTRREO
METAR KREO 051252Z AUTO 18008KT 23/12 A2998 RMK AO1 SLP098 T02280122





000
SAUS46 KPQR 051153
MTRREO
METAR KREO 051152Z AUTO 16008KT 23/12 A2997 RMK AO1 SLP094 T02280122
10272 20228 53007





000
SAUS46 KPQR 051053
MTRREO
METAR KREO 051052Z AUTO 19013KT 24/11 A2996 RMK AO1 SLP089 T02440111





000
SAUS46 KPQR 050953
MTRREO
METAR KREO 050952Z AUTO 20013KT 25/11 A2995 RMK AO1 SLP085 T02500106





000
SAUS46 KPQR 050853
MTRREO
METAR KREO 050852Z AUTO 18011KT 24/11 A2995 RMK AO1 SLP083 T02440111
53006





000
SAUS46 KPQR 050853
MTRREO
METAR KREO 050852Z AUTO 18011KT 24/11 A2995 RMK AO1 SLP083 T02440111
53006





000
SAUS46 KPQR 050753
MTRREO
METAR KREO 050752Z AUTO 17011KT 25/11 A2994 RMK AO1 SLP081 T02500106
403890233





000
SAUS46 KPQR 050653
MTRREO
METAR KREO 050652Z AUTO 19018G24KT 27/08 A2993 RMK AO1 PK WND
20026/0637 SLP077 T02670083





000
SAUS46 KPQR 050553
MTRREO
METAR KREO 050552Z AUTO 21018G26KT 27/09 A2993 RMK AO1 PK WND
21026/0552 SLP077 T02720089 10372 20261 50015





000
SAUS46 KPQR 050553
MTRREO
METAR KREO 050552Z AUTO 21018G26KT 27/09 A2993 RMK AO1 PK WND
21026/0552 SLP077 T02720089 10372 20261 50015





000
SAUS46 KPQR 050453
MTRREO
METAR KREO 050452Z AUTO 18011KT 27/11 A2994 RMK AO1 SLP082 T02670106





000
SAUS46 KPQR 050353
MTRREO
METAR KREO 050352Z AUTO 16018G25KT 27/12 A2992 RMK AO1 PK WND
15032/0320 SLP078 T02670117





000
SAUS46 KPQR 050253
MTRREO
METAR KREO 050252Z AUTO 15023G34KT 29/09 A2988 RMK AO1 PK WND
15034/0248 WSHFT 0224 SLP063 T02940089 53012





000
SAUS46 KPQR 050243
MTRREO
SPECI KREO 050241Z AUTO 13019G30KT 30/08 A2987 RMK AO1 PK WND
13030/0238 WSHFT 0224 T03000083





000
SAUS46 KPQR 050243
MTRREO
SPECI KREO 050241Z AUTO 13019G30KT 30/08 A2987 RMK AO1 PK WND
13030/0238 WSHFT 0224 T03000083





000
SAUS46 KPQR 050153
MTRREO
METAR KREO 050152Z AUTO 36009KT 36/M01 A2983 RMK AO1 WSHFT 0102
SLP045 T03561006





000
SAUS46 KPQR 050120
MTRREO
SPECI KREO 050119Z AUTO 36013KT 37/M01 A2983 RMK AO1 WSHFT 0102
T03671006





000
SAUS46 KPQR 050120
MTRREO
SPECI KREO 050119Z AUTO 36013KT 37/M01 A2983 RMK AO1 WSHFT 0102
T03671006





000
SAUS46 KPQR 050053
MTRREO
METAR KREO 050052Z AUTO 29006KT 36/M01 A2983 RMK AO1 SLP045
T03611006





000
SAUS46 KPQR 050053
MTRREO
METAR KREO 050052Z AUTO 29006KT 36/M01 A2983 RMK AO1 SLP045
T03611006





000
SAUS46 KPQR 042353
MTRREO
METAR KREO 042352Z AUTO 25013G21KT 37/M02 A2984 RMK AO1 SLP047
T03721017 10389 20333 56016





000
SAUS46 KPQR 042353
MTRREO
METAR KREO 042352Z AUTO 25013G21KT 37/M02 A2984 RMK AO1 SLP047
T03721017 10389 20333 56016





000
SAUS46 KPQR 042253
MTRREO
METAR KREO 042252Z AUTO 23010G15KT 37/M01 A2985 RMK AO1 SLP050
T03721011





000
SAUS46 KPQR 042153
MTRREO
METAR KREO 042152Z AUTO VRB04KT 37/M01 A2987 RMK AO1 SLP056
T03721006





000
SAUS46 KPQR 042053
MTRREO
METAR KREO 042052Z AUTO 27008KT 37/M01 A2990 RMK AO1 SLP063
T03721006 58017





000
SAUS46 KPQR 041953
MTRREO
METAR KREO 041952Z AUTO VRB05KT 36/00 A2992 RMK AO1 SLP072 T03610000





000
SAUS46 KPQR 041953
MTRREO
METAR KREO 041952Z AUTO VRB05KT 36/00 A2992 RMK AO1 SLP072 T03610000





000
SAUS46 KPQR 041853
MTRREO
METAR KREO 041852Z AUTO VRB05KT 36/01 A2994 RMK AO1 SLP076 T03560006





000
SAUS46 KPQR 041853
MTRREO
METAR KREO 041852Z AUTO VRB05KT 36/01 A2994 RMK AO1 SLP076 T03560006





000
SAUS46 KPQR 041753
MTRREO
METAR KREO 041752Z AUTO 32006KT 34/02 A2995 RMK AO1 SLP083 T03390017
10339 20239 58007





000
SAUS46 KPQR 041653
MTRREO
METAR KREO 041652Z AUTO 01006KT 33/02 A2996 RMK AO1 SLP087 T03280022





000
SAUS46 KPQR 041553
MTRREO
METAR KREO 041552Z AUTO 00000KT 29/04 A2998 RMK AO1 SLP093 T02940044





000
SAUS46 KPQR 041453
MTRREO
METAR KREO 041452Z AUTO 04005KT 29/03 A2998 RMK AO1 SLP092 T02890033
51010





000
SAUS46 KPQR 041353
MTRREO
METAR KREO 041352Z AUTO 06007KT 26/04 A2997 RMK AO1 SLP090 T02560039





000
SAUS46 KPQR 041258
MTRREO
METAR KREO 041252Z AUTO 10003KT 24/05 A2996 RMK AO1 SLP086 T02390050





000
SAUS46 KPQR 041153
MTRREO
METAR KREO 041152Z AUTO 16006KT 24/07 A2994 RMK AO1 SLP081 T02390067
10322 20233 51006





000
SAUS46 KPQR 041053
MTRREO
METAR KREO 041052Z AUTO 19004KT 24/07 A2994 RMK AO1 SLP078 T02440067





000
SAUS46 KPQR 041053
MTRREO
METAR KREO 041052Z AUTO 19004KT 24/07 A2994 RMK AO1 SLP078 T02440067





000
SAUS46 KPQR 040953
MTRREO
METAR KREO 040952Z AUTO 24006KT 26/08 A2993 RMK AO1 SLP075 T02610083





000
SAUS46 KPQR 040853
MTRREO
METAR KREO 040852Z AUTO 25008KT 27/09 A2992 RMK AO1 SLP071 T02720089
51005





000
SAUS46 KPQR 040853
MTRREO
METAR KREO 040852Z AUTO 25008KT 27/09 A2992 RMK AO1 SLP071 T02720089
51005





000
SAUS46 KPQR 040753
MTRREO
METAR KREO 040752Z AUTO 20014G20KT 28/10 A2992 RMK AO1 SLP070
T02830100 404000172





000
SAUS46 KPQR 040753
MTRREO
METAR KREO 040752Z AUTO 20014G20KT 28/10 A2992 RMK AO1 SLP070
T02830100 404000172





000
SAUS46 KPQR 040653
MTRREO
METAR KREO 040652Z AUTO 22019G26KT 30/09 A2992 RMK AO1 PK WND
22031/0626 SLP069 T03000089





000
SAUS46 KPQR 040553
MTRREO
METAR KREO 040552Z AUTO 21004KT 30/05 A2990 RMK AO1 SLP066 T03000050
10383 20294 50004





000
SAUS46 KPQR 040453
MTRREO
METAR KREO 040452Z AUTO 15007KT 31/07 A2991 RMK AO1 SLP070 T03110067





000
SAUS46 KPQR 040353
MTRREO
METAR KREO 040352Z AUTO 15014KT 33/07 A2990 RMK AO1 SLP065 T03280067





000
SAUS46 KPQR 040253
MTRREO
METAR KREO 040252Z AUTO 15017KT 34/06 A2989 RMK AO1 SLP063 T03390061
55000





000
SAUS46 KPQR 040153
MTRREO
METAR KREO 040152Z AUTO 15014KT 36/04 A2988 RMK AO1 SLP061 T03610044





000
SAUS46 KPQR 040053
MTRREO
METAR KREO 040052Z AUTO 34006KT 38/00 A2988 RMK AO1 SLP063 T03780000





000
SAUS46 KPQR 032353
MTRREO
METAR KREO 032352Z AUTO VRB04KT 38/00 A2989 RMK AO1 SLP068 T03780000
10400 20333 56022





000
SAUS46 KPQR 032253
MTRREO
METAR KREO 032252Z AUTO 20007KT 39/00 A2991 RMK AO1 SLP070 T03890000





000
SAUS46 KPQR 032153
MTRREO
METAR KREO 032152Z AUTO 38/00 A2994 RMK AO1 SLP080 T03830000





000
SAUS46 KPQR 032053
MTRREO
METAR KREO 032052Z AUTO 31007KT 280V350 38/00 A2996 RMK AO1 SLP087
T03830000 58018





000
SAUS46 KPQR 031953
MTRREO
METAR KREO 031952Z AUTO 30006KT 37/M01 A2999 RMK AO1 SLP097
T03671006





000
SAUS46 KPQR 031953
MTRREO
METAR KREO 031952Z AUTO 30006KT 37/M01 A2999 RMK AO1 SLP097
T03671006





000
SAUS46 KPQR 031853
MTRREO
METAR KREO 031852Z AUTO VRB04KT 35/01 A3001 RMK AO1 SLP102 T03500011





000
SAUS46 KPQR 031753
MTRREO
METAR KREO 031752Z AUTO 03006KT 34/M02 A3002 RMK AO1 SLP108
T03391022 10339 20172 58004





000
SAUS46 KPQR 031753
MTRREO
METAR KREO 031752Z AUTO 03006KT 34/M02 A3002 RMK AO1 SLP108
T03391022 10339 20172 58004





000
SAUS46 KPQR 031653
MTRREO
METAR KREO 031652Z AUTO 36008KT 320V030 32/M01 A3003 RMK AO1 SLP111
T03171011





000
SAUS46 KPQR 031553
MTRREO
METAR KREO 031552Z AUTO 33006KT 30/00 A3004 RMK AO1 SLP113 T03000000





000
SAUS46 KPQR 031553
MTRREO
METAR KREO 031552Z AUTO 33006KT 30/00 A3004 RMK AO1 SLP113 T03000000





000
SAUS46 KPQR 031453
MTRREO
METAR KREO 031452Z AUTO 33003KT 28/02 A3003 RMK AO1 SLP110 T02780017
50005





000
SAUS46 KPQR 031453
MTRREO
METAR KREO 031452Z AUTO 33003KT 28/02 A3003 RMK AO1 SLP110 T02780017
50005





000
SAUS46 KPQR 031353
MTRREO
METAR KREO 031352Z AUTO 15004KT 24/05 A3004 RMK AO1 SLP114 T02390050





000
SAUS46 KPQR 031258
MTRREO
METAR KREO 031252Z AUTO 15006KT 18/03 A3003 RMK AO1 SLP115 T01830028





000
SAUS46 KPQR 031258
MTRREO
METAR KREO 031252Z AUTO 15006KT 18/03 A3003 RMK AO1 SLP115 T01830028





000
SAUS46 KPQR 031153
MTRREO
METAR KREO 031152Z AUTO 00000KT 18/01 A3002 RMK AO1 SLP110 T01830011
10294 20172 53000





000
SAUS46 KPQR 031053
MTRREO
METAR KREO 031052Z AUTO 03005KT 23/01 A3001 RMK AO1 SLP105 T02280011





000
SAUS46 KPQR 030953
MTRREO
METAR KREO 030952Z AUTO 34003KT 24/02 A3001 RMK AO1 SLP105 T02390017





000
SAUS46 KPQR 030953
MTRREO
METAR KREO 030952Z AUTO 34003KT 24/02 A3001 RMK AO1 SLP105 T02390017





    US Dept of Commerce
    National Oceanic and Atmospheric Administration
    National Weather Service
    1325 East West Highway
    Silver Spring, MD 20910
    Page Author: NWS Internet Services Team
Disclaimer
Information Quality
Credits
Glossary
Privacy Policy
Freedom of Information Act (FOIA)
About Us
Career Opportunities